sensor_id;sensor_type;location;lat;lon;timestamp;P1;durP1;ratioP1;P2;durP2;ratioP2
30635;SDS011;17400;52.392;9.750;2023-03-14T00:01:20;3.60;;;1.08;;
30635;SDS011;17400;52.392;9.750;2023-03-14T00:03:48;3.00;;;0.88;;
30635;SDS011;17400;52.392;9.750;2023-03-14T00:06:17;1.77;;;1.00;;
30635;SDS011;17400;52.392;9.750;2023-03-14T00:08:46;2.80;;;0.85;;
30635;SDS011;17400;52.392;9.750;2023-03-14T00:11:14;2.65;;;1.15;;
30635;SDS011;17400;52.392;9.750;2023-03-14T00:13:47;1.45;;;0.90;;
30635;SDS011;17400;52.392;9.750;2023-03-14T00:16:15;5.93;;;0.98;;
30635;SDS011;17400;52.392;9.750;2023-03-14T00:18:42;1.38;;;0.93;;
30635;SDS011;17400;52.392;9.750;2023-03-14T00:21:11;1.77;;;1.35;;
30635;SDS011;17400;52.392;9.750;2023-03-14T00:23:40;1.85;;;1.10;;
30635;SDS011;17400;52.392;9.750;2023-03-14T00:26:09;4.80;;;1.65;;
30635;SDS011;17400;52.392;9.750;2023-03-14T00:28:39;1.42;;;0.90;;
30635;SDS011;17400;52.392;9.750;2023-03-14T00:31:08;1.77;;;1.00;;
30635;SDS011;17400;52.392;9.750;2023-03-14T00:33:37;3.10;;;1.27;;
30635;SDS011;17400;52.392;9.750;2023-03-14T00:36:06;1.95;;;1.08;;
30635;SDS011;17400;52.392;9.750;2023-03-14T00:38:37;3.38;;;0.80;;
30635;SDS011;17400;52.392;9.750;2023-03-14T00:41:08;4.75;;;1.10;;
30635;SDS011;17400;52.392;9.750;2023-03-14T00:43:37;1.98;;;1.20;;
30635;SDS011;17400;52.392;9.750;2023-03-14T00:46:05;1.85;;;1.23;;
30635;SDS011;17400;52.392;9.750;2023-03-14T00:48:34;1.55;;;1.20;;
30635;SDS011;17400;52.392;9.750;2023-03-14T00:51:03;5.30;;;1.02;;
30635;SDS011;17400;52.392;9.750;2023-03-14T00:53:34;0.95;;;0.73;;
30635;SDS011;17400;52.392;9.750;2023-03-14T00:56:03;3.33;;;1.17;;
30635;SDS011;17400;52.392;9.750;2023-03-14T00:58:33;4.85;;;1.27;;
30635;SDS011;17400;52.392;9.750;2023-03-14T01:01:04;3.33;;;0.95;;
30635;SDS011;17400;52.392;9.750;2023-03-14T01:03:33;2.28;;;0.80;;
30635;SDS011;17400;52.392;9.750;2023-03-14T01:06:07;0.98;;;0.75;;
30635;SDS011;17400;52.392;9.750;2023-03-14T01:08:36;1.20;;;0.88;;
30635;SDS011;17400;52.392;9.750;2023-03-14T01:11:07;1.95;;;0.90;;
30635;SDS011;17400;52.392;9.750;2023-03-14T01:13:37;2.88;;;1.00;;
30635;SDS011;17400;52.392;9.750;2023-03-14T01:16:06;0.98;;;0.52;;
30635;SDS011;17400;52.392;9.750;2023-03-14T01:18:36;3.38;;;0.80;;
30635;SDS011;17400;52.392;9.750;2023-03-14T01:21:09;1.73;;;1.08;;
30635;SDS011;17400;52.392;9.750;2023-03-14T01:23:40;1.60;;;0.65;;
30635;SDS011;17400;52.392;9.750;2023-03-14T01:26:08;1.83;;;0.93;;
30635;SDS011;17400;52.392;9.750;2023-03-14T01:28:38;5.13;;;1.38;;
30635;SDS011;17400;52.392;9.750;2023-03-14T01:31:06;2.05;;;1.27;;
30635;SDS011;17400;52.392;9.750;2023-03-14T01:33:36;4.97;;;1.42;;
30635;SDS011;17400;52.392;9.750;2023-03-14T01:36:04;0.98;;;0.88;;
30635;SDS011;17400;52.392;9.750;2023-03-14T01:38:34;4.03;;;0.98;;
30635;SDS011;17400;52.392;9.750;2023-03-14T01:41:02;1.85;;;1.05;;
30635;SDS011;17400;52.392;9.750;2023-03-14T01:43:31;3.60;;;0.88;;
30635;SDS011;17400;52.392;9.750;2023-03-14T01:46:12;4.53;;;1.08;;
30635;SDS011;17400;52.392;9.750;2023-03-14T01:48:48;1.08;;;0.82;;
30635;SDS011;17400;52.392;9.750;2023-03-14T01:51:24;6.40;;;1.80;;
30635;SDS011;17400;52.392;9.750;2023-03-14T01:53:58;3.60;;;1.17;;
30635;SDS011;17400;52.392;9.750;2023-03-14T01:56:32;2.00;;;1.58;;
30635;SDS011;17400;52.392;9.750;2023-03-14T01:59:01;3.92;;;1.42;;
30635;SDS011;17400;52.392;9.750;2023-03-14T02:01:35;2.67;;;0.93;;
30635;SDS011;17400;52.392;9.750;2023-03-14T02:04:04;5.00;;;1.10;;
30635;SDS011;17400;52.392;9.750;2023-03-14T02:06:36;0.82;;;0.70;;
30635;SDS011;17400;52.392;9.750;2023-03-14T02:09:09;2.28;;;1.02;;
30635;SDS011;17400;52.392;9.750;2023-03-14T02:11:37;1.35;;;0.70;;
30635;SDS011;17400;52.392;9.750;2023-03-14T02:14:05;3.45;;;1.83;;
30635;SDS011;17400;52.392;9.750;2023-03-14T02:16:38;4.10;;;1.25;;
30635;SDS011;17400;52.392;9.750;2023-03-14T02:19:06;3.03;;;1.00;;
30635;SDS011;17400;52.392;9.750;2023-03-14T02:21:38;1.33;;;1.10;;
30635;SDS011;17400;52.392;9.750;2023-03-14T02:24:15;2.35;;;1.10;;
30635;SDS011;17400;52.392;9.750;2023-03-14T02:27:05;2.03;;;0.98;;
30635;SDS011;17400;52.392;9.750;2023-03-14T02:29:39;4.13;;;1.13;;
30635;SDS011;17400;52.392;9.750;2023-03-14T02:32:12;2.60;;;1.48;;
30635;SDS011;17400;52.392;9.750;2023-03-14T02:34:42;1.85;;;0.98;;
30635;SDS011;17400;52.392;9.750;2023-03-14T02:37:12;6.00;;;0.93;;
30635;SDS011;17400;52.392;9.750;2023-03-14T02:39:44;1.52;;;0.73;;
30635;SDS011;17400;52.392;9.750;2023-03-14T02:42:15;4.45;;;1.05;;
30635;SDS011;17400;52.392;9.750;2023-03-14T02:44:53;4.82;;;1.48;;
30635;SDS011;17400;52.392;9.750;2023-03-14T02:47:26;0.75;;;0.73;;
30635;SDS011;17400;52.392;9.750;2023-03-14T02:49:58;1.60;;;0.93;;
30635;SDS011;17400;52.392;9.750;2023-03-14T02:52:29;3.45;;;0.73;;
30635;SDS011;17400;52.392;9.750;2023-03-14T02:54:57;1.80;;;1.02;;
30635;SDS011;17400;52.392;9.750;2023-03-14T02:57:26;1.52;;;0.95;;
30635;SDS011;17400;52.392;9.750;2023-03-14T02:59:54;1.38;;;0.80;;
30635;SDS011;17400;52.392;9.750;2023-03-14T03:02:25;1.42;;;1.00;;
30635;SDS011;17400;52.392;9.750;2023-03-14T03:04:53;1.08;;;0.63;;
30635;SDS011;17400;52.392;9.750;2023-03-14T03:07:21;4.07;;;0.70;;
30635;SDS011;17400;52.392;9.750;2023-03-14T03:09:48;2.53;;;0.75;;
30635;SDS011;17400;52.392;9.750;2023-03-14T03:12:16;1.67;;;1.33;;
30635;SDS011;17400;52.392;9.750;2023-03-14T03:14:45;0.85;;;0.45;;
30635;SDS011;17400;52.392;9.750;2023-03-14T03:17:13;1.73;;;0.75;;
30635;SDS011;17400;52.392;9.750;2023-03-14T03:19:41;5.03;;;1.30;;
30635;SDS011;17400;52.392;9.750;2023-03-14T03:22:08;0.68;;;0.57;;
30635;SDS011;17400;52.392;9.750;2023-03-14T03:24:36;5.28;;;0.80;;
30635;SDS011;17400;52.392;9.750;2023-03-14T03:27:04;1.85;;;0.75;;
30635;SDS011;17400;52.392;9.750;2023-03-14T03:29:31;2.45;;;0.95;;
30635;SDS011;17400;52.392;9.750;2023-03-14T03:32:00;3.42;;;1.05;;
30635;SDS011;17400;52.392;9.750;2023-03-14T03:34:28;1.73;;;0.80;;
30635;SDS011;17400;52.392;9.750;2023-03-14T03:36:56;3.03;;;1.17;;
30635;SDS011;17400;52.392;9.750;2023-03-14T03:39:23;2.45;;;1.02;;
30635;SDS011;17400;52.392;9.750;2023-03-14T03:41:51;2.72;;;1.08;;
30635;SDS011;17400;52.392;9.750;2023-03-14T03:44:19;2.05;;;0.60;;
30635;SDS011;17400;52.392;9.750;2023-03-14T03:46:47;4.68;;;1.27;;
30635;SDS011;17400;52.392;9.750;2023-03-14T03:49:16;4.75;;;1.00;;
30635;SDS011;17400;52.392;9.750;2023-03-14T03:51:43;2.72;;;0.90;;
30635;SDS011;17400;52.392;9.750;2023-03-14T03:54:11;3.95;;;1.10;;
30635;SDS011;17400;52.392;9.750;2023-03-14T03:56:38;3.10;;;1.40;;
30635;SDS011;17400;52.392;9.750;2023-03-14T03:59:06;2.22;;;0.70;;
30635;SDS011;17400;52.392;9.750;2023-03-14T04:01:34;0.95;;;0.57;;
30635;SDS011;17400;52.392;9.750;2023-03-14T04:04:02;2.47;;;0.70;;
30635;SDS011;17400;52.392;9.750;2023-03-14T04:06:31;2.15;;;0.57;;
30635;SDS011;17400;52.392;9.750;2023-03-14T04:08:59;1.23;;;0.70;;
30635;SDS011;17400;52.392;9.750;2023-03-14T04:11:27;1.30;;;0.98;;
30635;SDS011;17400;52.392;9.750;2023-03-14T04:13:55;3.80;;;0.75;;
30635;SDS011;17400;52.392;9.750;2023-03-14T04:16:24;2.88;;;0.70;;
30635;SDS011;17400;52.392;9.750;2023-03-14T04:18:52;0.63;;;0.32;;
30635;SDS011;17400;52.392;9.750;2023-03-14T04:21:20;0.80;;;0.40;;
30635;SDS011;17400;52.392;9.750;2023-03-14T04:23:49;0.75;;;0.47;;
30635;SDS011;17400;52.392;9.750;2023-03-14T04:26:17;2.47;;;0.40;;
30635;SDS011;17400;52.392;9.750;2023-03-14T04:28:44;0.98;;;0.40;;
30635;SDS011;17400;52.392;9.750;2023-03-14T04:31:13;3.38;;;0.45;;
30635;SDS011;17400;52.392;9.750;2023-03-14T04:33:42;0.88;;;0.25;;
30635;SDS011;17400;52.392;9.750;2023-03-14T04:36:11;2.58;;;0.25;;
30635;SDS011;17400;52.392;9.750;2023-03-14T04:38:39;1.25;;;0.45;;
30635;SDS011;17400;52.392;9.750;2023-03-14T04:41:08;3.13;;;1.42;;
30635;SDS011;17400;52.392;9.750;2023-03-14T04:43:36;10.88;;;2.70;;
30635;SDS011;17400;52.392;9.750;2023-03-14T04:46:03;5.43;;;2.47;;
30635;SDS011;17400;52.392;9.750;2023-03-14T04:48:31;2.63;;;1.83;;
30635;SDS011;17400;52.392;9.750;2023-03-14T04:50:59;8.15;;;3.67;;
30635;SDS011;17400;52.392;9.750;2023-03-14T04:53:27;5.32;;;2.70;;
30635;SDS011;17400;52.392;9.750;2023-03-14T04:55:58;3.72;;;1.88;;
30635;SDS011;17400;52.392;9.750;2023-03-14T04:58:28;2.17;;;1.10;;
30635;SDS011;17400;52.392;9.750;2023-03-14T05:00:55;1.63;;;0.75;;
30635;SDS011;17400;52.392;9.750;2023-03-14T05:03:28;2.28;;;0.47;;
30635;SDS011;17400;52.392;9.750;2023-03-14T05:05:56;0.35;;;0.20;;
30635;SDS011;17400;52.392;9.750;2023-03-14T05:08:25;0.55;;;0.40;;
30635;SDS011;17400;52.392;9.750;2023-03-14T05:10:53;0.55;;;0.35;;
30635;SDS011;17400;52.392;9.750;2023-03-14T05:13:21;0.68;;;0.20;;
30635;SDS011;17400;52.392;9.750;2023-03-14T05:15:50;1.27;;;0.30;;
30635;SDS011;17400;52.392;9.750;2023-03-14T05:18:18;0.10;;;0.10;;
30635;SDS011;17400;52.392;9.750;2023-03-14T05:20:46;0.55;;;0.22;;
30635;SDS011;17400;52.392;9.750;2023-03-14T05:23:13;5.85;;;0.50;;
30635;SDS011;17400;52.392;9.750;2023-03-14T05:25:42;0.25;;;0.22;;
30635;SDS011;17400;52.392;9.750;2023-03-14T05:28:10;0.85;;;0.43;;
30635;SDS011;17400;52.392;9.750;2023-03-14T05:30:38;3.50;;;0.30;;
30635;SDS011;17400;52.392;9.750;2023-03-14T05:33:07;2.38;;;0.47;;
30635;SDS011;17400;52.392;9.750;2023-03-14T05:35:35;1.00;;;0.35;;
30635;SDS011;17400;52.392;9.750;2023-03-14T05:38:03;1.00;;;0.38;;
30635;SDS011;17400;52.392;9.750;2023-03-14T05:40:30;1.60;;;0.30;;
30635;SDS011;17400;52.392;9.750;2023-03-14T05:42:58;3.72;;;0.65;;
30635;SDS011;17400;52.392;9.750;2023-03-14T05:45:26;1.50;;;0.35;;
30635;SDS011;17400;52.392;9.750;2023-03-14T05:47:53;0.22;;;0.20;;
30635;SDS011;17400;52.392;9.750;2023-03-14T05:50:22;0.85;;;0.52;;
30635;SDS011;17400;52.392;9.750;2023-03-14T05:52:50;0.90;;;0.43;;
30635;SDS011;17400;52.392;9.750;2023-03-14T05:55:18;1.20;;;0.47;;
30635;SDS011;17400;52.392;9.750;2023-03-14T05:57:45;4.68;;;1.27;;
30635;SDS011;17400;52.392;9.750;2023-03-14T06:00:13;3.03;;;0.70;;
30635;SDS011;17400;52.392;9.750;2023-03-14T06:02:42;1.20;;;0.50;;
30635;SDS011;17400;52.392;9.750;2023-03-14T06:05:09;0.73;;;0.60;;
30635;SDS011;17400;52.392;9.750;2023-03-14T06:07:39;1.23;;;0.70;;
30635;SDS011;17400;52.392;9.750;2023-03-14T06:10:07;3.58;;;0.75;;
30635;SDS011;17400;52.392;9.750;2023-03-14T06:12:35;1.80;;;0.47;;
30635;SDS011;17400;52.392;9.750;2023-03-14T06:15:03;1.73;;;0.60;;
30635;SDS011;17400;52.392;9.750;2023-03-14T06:17:32;8.98;;;0.90;;
30635;SDS011;17400;52.392;9.750;2023-03-14T06:20:00;4.60;;;1.13;;
30635;SDS011;17400;52.392;9.750;2023-03-14T06:22:27;3.88;;;1.10;;
30635;SDS011;17400;52.392;9.750;2023-03-14T06:24:56;3.65;;;1.30;;
30635;SDS011;17400;52.392;9.750;2023-03-14T06:27:24;5.10;;;0.90;;
30635;SDS011;17400;52.392;9.750;2023-03-14T06:29:52;1.75;;;0.93;;
30635;SDS011;17400;52.392;9.750;2023-03-14T06:32:19;3.45;;;1.45;;
30635;SDS011;17400;52.392;9.750;2023-03-14T06:34:47;4.20;;;1.95;;
30635;SDS011;17400;52.392;9.750;2023-03-14T06:37:15;5.68;;;2.85;;
30635;SDS011;17400;52.392;9.750;2023-03-14T06:39:46;3.63;;;1.40;;
30635;SDS011;17400;52.392;9.750;2023-03-14T06:42:15;4.82;;;1.25;;
30635;SDS011;17400;52.392;9.750;2023-03-14T06:44:43;1.08;;;0.63;;
30635;SDS011;17400;52.392;9.750;2023-03-14T06:47:10;3.45;;;0.75;;
30635;SDS011;17400;52.392;9.750;2023-03-14T06:49:38;0.70;;;0.40;;
30635;SDS011;17400;52.392;9.750;2023-03-14T06:52:06;3.60;;;1.02;;
30635;SDS011;17400;52.392;9.750;2023-03-14T06:54:33;0.75;;;0.38;;
30635;SDS011;17400;52.392;9.750;2023-03-14T06:57:01;1.25;;;0.52;;
30635;SDS011;17400;52.392;9.750;2023-03-14T06:59:32;2.20;;;0.60;;
30635;SDS011;17400;52.392;9.750;2023-03-14T07:02:00;0.25;;;0.20;;
30635;SDS011;17400;52.392;9.750;2023-03-14T07:04:27;3.05;;;0.25;;
30635;SDS011;17400;52.392;9.750;2023-03-14T07:06:55;0.55;;;0.40;;
30635;SDS011;17400;52.392;9.750;2023-03-14T07:09:23;1.40;;;0.40;;
30635;SDS011;17400;52.392;9.750;2023-03-14T07:11:51;1.75;;;0.80;;
30635;SDS011;17400;52.392;9.750;2023-03-14T07:14:18;1.73;;;0.50;;
30635;SDS011;17400;52.392;9.750;2023-03-14T07:16:48;2.17;;;0.68;;
30635;SDS011;17400;52.392;9.750;2023-03-14T07:19:16;0.10;;;0.10;;
30635;SDS011;17400;52.392;9.750;2023-03-14T07:21:44;0.43;;;0.20;;
30635;SDS011;17400;52.392;9.750;2023-03-14T07:24:12;0.68;;;0.40;;
30635;SDS011;17400;52.392;9.750;2023-03-14T07:26:40;1.85;;;0.70;;
30635;SDS011;17400;52.392;9.750;2023-03-14T07:29:08;1.35;;;0.85;;
30635;SDS011;17400;52.392;9.750;2023-03-14T07:31:36;0.93;;;0.45;;
30635;SDS011;17400;52.392;9.750;2023-03-14T07:34:05;1.40;;;0.60;;
30635;SDS011;17400;52.392;9.750;2023-03-14T07:36:33;0.35;;;0.30;;
30635;SDS011;17400;52.392;9.750;2023-03-14T07:39:00;0.52;;;0.20;;
30635;SDS011;17400;52.392;9.750;2023-03-14T07:41:28;1.73;;;0.40;;
30635;SDS011;17400;52.392;9.750;2023-03-14T07:43:56;0.82;;;0.50;;
30635;SDS011;17400;52.392;9.750;2023-03-14T07:46:24;1.52;;;0.15;;
30635;SDS011;17400;52.392;9.750;2023-03-14T07:48:52;0.95;;;0.30;;
30635;SDS011;17400;52.392;9.750;2023-03-14T07:51:21;0.40;;;0.30;;
30635;SDS011;17400;52.392;9.750;2023-03-14T07:53:48;1.05;;;0.30;;
30635;SDS011;17400;52.392;9.750;2023-03-14T07:56:16;0.47;;;0.15;;
30635;SDS011;17400;52.392;9.750;2023-03-14T07:58:44;0.45;;;0.45;;
30635;SDS011;17400;52.392;9.750;2023-03-14T08:01:11;2.70;;;0.40;;
30635;SDS011;17400;52.392;9.750;2023-03-14T08:03:39;0.40;;;0.20;;
30635;SDS011;17400;52.392;9.750;2023-03-14T08:06:07;0.22;;;0.22;;
30635;SDS011;17400;52.392;9.750;2023-03-14T08:08:37;0.40;;;0.25;;
30635;SDS011;17400;52.392;9.750;2023-03-14T08:11:05;0.10;;;0.10;;
30635;SDS011;17400;52.392;9.750;2023-03-14T08:13:34;0.55;;;0.30;;
30635;SDS011;17400;52.392;9.750;2023-03-14T08:16:03;0.22;;;0.20;;
30635;SDS011;17400;52.392;9.750;2023-03-14T08:18:31;0.20;;;0.20;;
30635;SDS011;17400;52.392;9.750;2023-03-14T08:20:59;1.02;;;0.30;;
30635;SDS011;17400;52.392;9.750;2023-03-14T08:23:27;0.22;;;0.22;;
30635;SDS011;17400;52.392;9.750;2023-03-14T08:25:56;0.73;;;0.25;;
30635;SDS011;17400;52.392;9.750;2023-03-14T08:28:24;0.30;;;0.20;;
30635;SDS011;17400;52.392;9.750;2023-03-14T08:30:56;1.17;;;0.30;;
30635;SDS011;17400;52.392;9.750;2023-03-14T08:33:25;0.30;;;0.20;;
30635;SDS011;17400;52.392;9.750;2023-03-14T08:35:54;1.35;;;0.47;;
30635;SDS011;17400;52.392;9.750;2023-03-14T08:38:22;2.15;;;0.32;;
30635;SDS011;17400;52.392;9.750;2023-03-14T08:40:54;0.52;;;0.15;;
30635;SDS011;17400;52.392;9.750;2023-03-14T08:43:24;0.60;;;0.28;;
30635;SDS011;17400;52.392;9.750;2023-03-14T08:45:53;0.20;;;0.20;;
30635;SDS011;17400;52.392;9.750;2023-03-14T08:48:27;0.38;;;0.25;;
30635;SDS011;17400;52.392;9.750;2023-03-14T08:50:56;1.25;;;0.50;;
30635;SDS011;17400;52.392;9.750;2023-03-14T08:53:24;1.35;;;0.30;;
30635;SDS011;17400;52.392;9.750;2023-03-14T08:55:52;0.38;;;0.20;;
30635;SDS011;17400;52.392;9.750;2023-03-14T08:58:25;0.32;;;0.30;;
30635;SDS011;17400;52.392;9.750;2023-03-14T09:00:52;0.95;;;0.32;;
30635;SDS011;17400;52.392;9.750;2023-03-14T09:03:20;3.33;;;0.32;;
30635;SDS011;17400;52.392;9.750;2023-03-14T09:05:49;0.52;;;0.28;;
30635;SDS011;17400;52.392;9.750;2023-03-14T09:08:17;1.17;;;0.35;;
30635;SDS011;17400;52.392;9.750;2023-03-14T09:10:45;0.57;;;0.30;;
30635;SDS011;17400;52.392;9.750;2023-03-14T09:13:12;0.45;;;0.20;;
30635;SDS011;17400;52.392;9.750;2023-03-14T09:15:41;1.60;;;0.50;;
30635;SDS011;17400;52.392;9.750;2023-03-14T09:18:09;1.70;;;0.52;;
30635;SDS011;17400;52.392;9.750;2023-03-14T09:20:37;2.50;;;0.60;;
30635;SDS011;17400;52.392;9.750;2023-03-14T09:23:04;1.65;;;0.55;;
30635;SDS011;17400;52.392;9.750;2023-03-14T09:25:32;0.70;;;0.40;;
30635;SDS011;17400;52.392;9.750;2023-03-14T09:28:00;2.30;;;0.50;;
30635;SDS011;17400;52.392;9.750;2023-03-14T09:30:28;0.60;;;0.30;;
30635;SDS011;17400;52.392;9.750;2023-03-14T09:32:57;0.47;;;0.40;;
30635;SDS011;17400;52.392;9.750;2023-03-14T09:35:25;0.55;;;0.40;;
30635;SDS011;17400;52.392;9.750;2023-03-14T09:37:53;0.20;;;0.20;;
30635;SDS011;17400;52.392;9.750;2023-03-14T09:40:21;0.85;;;0.40;;
30635;SDS011;17400;52.392;9.750;2023-03-14T09:42:50;0.65;;;0.45;;
30635;SDS011;17400;52.392;9.750;2023-03-14T09:45:26;3.13;;;0.63;;
30635;SDS011;17400;52.392;9.750;2023-03-14T09:47:57;2.55;;;0.70;;
30635;SDS011;17400;52.392;9.750;2023-03-14T09:50:27;1.10;;;0.55;;
30635;SDS011;17400;52.392;9.750;2023-03-14T09:53:02;3.85;;;1.58;;
30635;SDS011;17400;52.392;9.750;2023-03-14T09:55:33;0.25;;;0.20;;
30635;SDS011;17400;52.392;9.750;2023-03-14T09:58:02;2.30;;;0.80;;
30635;SDS011;17400;52.392;9.750;2023-03-14T10:00:36;1.83;;;0.73;;
30635;SDS011;17400;52.392;9.750;2023-03-14T10:03:14;2.53;;;0.98;;
30635;SDS011;17400;52.392;9.750;2023-03-14T10:05:49;0.65;;;0.40;;
30635;SDS011;17400;52.392;9.750;2023-03-14T10:08:17;1.15;;;0.70;;
30635;SDS011;17400;52.392;9.750;2023-03-14T10:10:45;1.05;;;0.40;;
30635;SDS011;17400;52.392;9.750;2023-03-14T10:13:14;0.57;;;0.40;;
30635;SDS011;17400;52.392;9.750;2023-03-14T10:15:46;0.57;;;0.43;;
30635;SDS011;17400;52.392;9.750;2023-03-14T10:18:17;1.38;;;0.57;;
30635;SDS011;17400;52.392;9.750;2023-03-14T10:20:46;1.00;;;0.50;;
30635;SDS011;17400;52.392;9.750;2023-03-14T10:23:19;1.48;;;0.73;;
30635;SDS011;17400;52.392;9.750;2023-03-14T10:25:58;2.55;;;0.60;;
30635;SDS011;17400;52.392;9.750;2023-03-14T10:28:33;1.40;;;0.80;;
30635;SDS011;17400;52.392;9.750;2023-03-14T10:31:04;1.92;;;1.05;;
30635;SDS011;17400;52.392;9.750;2023-03-14T10:33:35;0.63;;;0.60;;
30635;SDS011;17400;52.392;9.750;2023-03-14T10:36:06;1.65;;;0.60;;
30635;SDS011;17400;52.392;9.750;2023-03-14T10:38:45;1.20;;;0.60;;
30635;SDS011;17400;52.392;9.750;2023-03-14T10:41:14;1.17;;;0.70;;
30635;SDS011;17400;52.392;9.750;2023-03-14T10:43:44;1.25;;;0.82;;
30635;SDS011;17400;52.392;9.750;2023-03-14T10:46:13;1.17;;;0.68;;
30635;SDS011;17400;52.392;9.750;2023-03-14T10:48:44;0.45;;;0.45;;
30635;SDS011;17400;52.392;9.750;2023-03-14T10:51:18;1.38;;;1.00;;
30635;SDS011;17400;52.392;9.750;2023-03-14T10:53:48;2.22;;;1.10;;
30635;SDS011;17400;52.392;9.750;2023-03-14T10:56:17;1.25;;;0.75;;
30635;SDS011;17400;52.392;9.750;2023-03-14T10:58:48;5.07;;;1.20;;
30635;SDS011;17400;52.392;9.750;2023-03-14T11:04:09;3.60;;;1.27;;
30635;SDS011;17400;52.392;9.750;2023-03-14T11:06:48;2.25;;;1.05;;
30635;SDS011;17400;52.392;9.750;2023-03-14T11:09:22;1.58;;;1.15;;
30635;SDS011;17400;52.392;9.750;2023-03-14T11:11:58;2.78;;;1.27;;
30635;SDS011;17400;52.392;9.750;2023-03-14T11:14:34;1.63;;;1.17;;
30635;SDS011;17400;52.392;9.750;2023-03-14T11:17:08;2.45;;;1.52;;
30635;SDS011;17400;52.392;9.750;2023-03-14T11:19:47;3.13;;;2.00;;
30635;SDS011;17400;52.392;9.750;2023-03-14T11:22:32;3.78;;;1.58;;
30635;SDS011;17400;52.392;9.750;2023-03-14T11:25:11;1.30;;;0.85;;
30635;SDS011;17400;52.392;9.750;2023-03-14T11:27:48;1.65;;;0.60;;
30635;SDS011;17400;52.392;9.750;2023-03-14T11:30:30;1.55;;;0.82;;
30635;SDS011;17400;52.392;9.750;2023-03-14T11:33:04;1.42;;;1.10;;
30635;SDS011;17400;52.392;9.750;2023-03-14T11:35:40;1.77;;;1.05;;
30635;SDS011;17400;52.392;9.750;2023-03-14T11:38:15;2.10;;;1.10;;
30635;SDS011;17400;52.392;9.750;2023-03-14T11:40:52;1.67;;;1.08;;
30635;SDS011;17400;52.392;9.750;2023-03-14T11:43:25;1.45;;;1.20;;
30635;SDS011;17400;52.392;9.750;2023-03-14T11:45:57;4.85;;;1.42;;
30635;SDS011;17400;52.392;9.750;2023-03-14T11:48:29;2.97;;;1.52;;
30635;SDS011;17400;52.392;9.750;2023-03-14T11:51:07;0.82;;;0.73;;
30635;SDS011;17400;52.392;9.750;2023-03-14T11:53:43;1.65;;;0.80;;
30635;SDS011;17400;52.392;9.750;2023-03-14T11:56:27;2.30;;;0.65;;
30635;SDS011;17400;52.392;9.750;2023-03-14T11:59:01;1.30;;;0.65;;
30635;SDS011;17400;52.392;9.750;2023-03-14T12:01:45;1.15;;;0.80;;
30635;SDS011;17400;52.392;9.750;2023-03-14T12:04:21;1.02;;;0.70;;
30635;SDS011;17400;52.392;9.750;2023-03-14T12:07:03;0.60;;;0.30;;
30635;SDS011;17400;52.392;9.750;2023-03-14T12:09:39;0.85;;;0.77;;
30635;SDS011;17400;52.392;9.750;2023-03-14T12:12:10;1.40;;;0.50;;
30635;SDS011;17400;52.392;9.750;2023-03-14T12:14:44;2.65;;;0.65;;
30635;SDS011;17400;52.392;9.750;2023-03-14T12:17:20;0.43;;;0.38;;
30635;SDS011;17400;52.392;9.750;2023-03-14T12:19:55;0.73;;;0.25;;
30635;SDS011;17400;52.392;9.750;2023-03-14T12:22:34;0.65;;;0.38;;
30635;SDS011;17400;52.392;9.750;2023-03-14T12:25:05;0.50;;;0.50;;
30635;SDS011;17400;52.392;9.750;2023-03-14T12:30:46;0.30;;;0.30;;
30635;SDS011;17400;52.392;9.750;2023-03-14T12:36:00;3.08;;;0.60;;
30635;SDS011;17400;52.392;9.750;2023-03-14T12:38:45;0.50;;;0.50;;
30635;SDS011;17400;52.392;9.750;2023-03-14T12:41:20;0.75;;;0.20;;
30635;SDS011;17400;52.392;9.750;2023-03-14T12:43:52;1.15;;;0.43;;
30635;SDS011;17400;52.392;9.750;2023-03-14T12:46:21;0.80;;;0.40;;
30635;SDS011;17400;52.392;9.750;2023-03-14T12:48:53;2.70;;;0.40;;
30635;SDS011;17400;52.392;9.750;2023-03-14T12:51:28;1.13;;;0.50;;
30635;SDS011;17400;52.392;9.750;2023-03-14T12:54:09;0.45;;;0.20;;
30635;SDS011;17400;52.392;9.750;2023-03-14T12:56:59;1.27;;;0.70;;
30635;SDS011;17400;52.392;9.750;2023-03-14T12:59:34;1.92;;;0.70;;
30635;SDS011;17400;52.392;9.750;2023-03-14T13:02:22;2.42;;;0.80;;
30635;SDS011;17400;52.392;9.750;2023-03-14T13:04:53;2.03;;;0.63;;
30635;SDS011;17400;52.392;9.750;2023-03-14T13:07:30;2.58;;;0.93;;
30635;SDS011;17400;52.392;9.750;2023-03-14T13:10:09;1.60;;;0.73;;
30635;SDS011;17400;52.392;9.750;2023-03-14T13:12:48;4.15;;;0.60;;
30635;SDS011;17400;52.392;9.750;2023-03-14T13:15:18;1.55;;;0.70;;
30635;SDS011;17400;52.392;9.750;2023-03-14T13:17:51;2.67;;;0.90;;
30635;SDS011;17400;52.392;9.750;2023-03-14T13:20:24;6.78;;;0.90;;
30635;SDS011;17400;52.392;9.750;2023-03-14T13:22:56;4.38;;;0.90;;
30635;SDS011;17400;52.392;9.750;2023-03-14T13:25:25;6.47;;;1.13;;
30635;SDS011;17400;52.392;9.750;2023-03-14T13:27:57;4.50;;;0.88;;
30635;SDS011;17400;52.392;9.750;2023-03-14T13:30:26;8.68;;;0.82;;
30635;SDS011;17400;52.392;9.750;2023-03-14T13:32:56;4.70;;;0.95;;
30635;SDS011;17400;52.392;9.750;2023-03-14T13:35:24;5.15;;;1.02;;
30635;SDS011;17400;52.392;9.750;2023-03-14T13:37:55;2.05;;;0.80;;
30635;SDS011;17400;52.392;9.750;2023-03-14T13:40:38;7.05;;;1.02;;
30635;SDS011;17400;52.392;9.750;2023-03-14T13:43:14;3.17;;;0.80;;
30635;SDS011;17400;52.392;9.750;2023-03-14T13:45:49;2.33;;;1.40;;
30635;SDS011;17400;52.392;9.750;2023-03-14T13:48:18;4.18;;;0.90;;
30635;SDS011;17400;52.392;9.750;2023-03-14T13:50:54;3.83;;;1.10;;
30635;SDS011;17400;52.392;9.750;2023-03-14T13:53:24;3.05;;;1.77;;
30635;SDS011;17400;52.392;9.750;2023-03-14T13:55:53;7.53;;;0.82;;
30635;SDS011;17400;52.392;9.750;2023-03-14T13:58:23;4.32;;;1.58;;
30635;SDS011;17400;52.392;9.750;2023-03-14T14:00:57;4.68;;;1.50;;
30635;SDS011;17400;52.392;9.750;2023-03-14T14:03:27;4.43;;;0.77;;
30635;SDS011;17400;52.392;9.750;2023-03-14T14:05:57;3.42;;;1.17;;
30635;SDS011;17400;52.392;9.750;2023-03-14T14:08:25;4.82;;;0.93;;
30635;SDS011;17400;52.392;9.750;2023-03-14T14:10:58;3.95;;;1.42;;
30635;SDS011;17400;52.392;9.750;2023-03-14T14:13:29;10.30;;;1.65;;
30635;SDS011;17400;52.392;9.750;2023-03-14T14:16:00;3.15;;;1.10;;
30635;SDS011;17400;52.392;9.750;2023-03-14T14:18:31;5.18;;;1.73;;
30635;SDS011;17400;52.392;9.750;2023-03-14T14:21:01;4.35;;;1.40;;
30635;SDS011;17400;52.392;9.750;2023-03-14T14:23:31;5.43;;;1.50;;
30635;SDS011;17400;52.392;9.750;2023-03-14T14:26:01;6.72;;;1.45;;
30635;SDS011;17400;52.392;9.750;2023-03-14T14:28:35;6.90;;;1.40;;
30635;SDS011;17400;52.392;9.750;2023-03-14T14:31:06;10.35;;;1.70;;
30635;SDS011;17400;52.392;9.750;2023-03-14T14:33:52;4.15;;;1.40;;
30635;SDS011;17400;52.392;9.750;2023-03-14T14:36:23;10.82;;;1.98;;
30635;SDS011;17400;52.392;9.750;2023-03-14T14:38:53;4.70;;;1.13;;
30635;SDS011;17400;52.392;9.750;2023-03-14T14:41:30;12.32;;;1.55;;
30635;SDS011;17400;52.392;9.750;2023-03-14T14:44:00;6.93;;;1.17;;
30635;SDS011;17400;52.392;9.750;2023-03-14T14:46:30;6.68;;;1.60;;
30635;SDS011;17400;52.392;9.750;2023-03-14T14:49:02;4.05;;;1.33;;
30635;SDS011;17400;52.392;9.750;2023-03-14T14:51:34;4.50;;;1.30;;
30635;SDS011;17400;52.392;9.750;2023-03-14T14:54:10;15.68;;;1.80;;
30635;SDS011;17400;52.392;9.750;2023-03-14T14:56:44;8.07;;;2.15;;
30635;SDS011;17400;52.392;9.750;2023-03-14T14:59:20;6.05;;;2.17;;
30635;SDS011;17400;52.392;9.750;2023-03-14T15:01:49;9.15;;;1.30;;
30635;SDS011;17400;52.392;9.750;2023-03-14T15:04:22;12.40;;;1.45;;
30635;SDS011;17400;52.392;9.750;2023-03-14T15:06:53;8.82;;;1.60;;
30635;SDS011;17400;52.392;9.750;2023-03-14T15:09:22;7.63;;;1.75;;
30635;SDS011;17400;52.392;9.750;2023-03-14T15:11:51;6.78;;;1.15;;
30635;SDS011;17400;52.392;9.750;2023-03-14T15:14:20;3.70;;;0.98;;
30635;SDS011;17400;52.392;9.750;2023-03-14T15:16:47;4.45;;;1.42;;